METAR AND TAF INFORMATION
METAR FOR KBNA
KBNA 260353Z 36006KT 10SM SCT100 16/01 A3000 RMK AO2 SLP158 T01610006 $
KBNA 260253Z 19012KT 10SM CLR 16/01 A2994 RMK AO2 SLP138 T01560006 50009 $
KBNA 260153Z 18005KT 10SM CLR 16/00 A2995 RMK AO2 SLP140 T01560000 $
KBNA 260520Z 2606/2706 20009KT P6SM SCT100 WS020/23045KT
FM261500 20010G21KT P6SM FEW070
FM270000 18013KT P6SM BKN050

 AIRPORT MAP

 RUNWAY INFORMATION
Runway 02C Runway length 8001 ft Runway width 150 ft
Runway elevation 569 ft Runway displaced threshold 455 ft Runway heading 18
Runway 20C Runway length 8001 ft Runway width 150 ft
Runway elevation 572 ft Runway displaced threshold 0 ft Runway heading 198
Runway 02L Runway length 7703 ft Runway width 150 ft
Runway elevation 599 ft Runway displaced threshold 0 ft Runway heading 18
Runway 20R Runway length 7703 ft Runway width 150 ft
Runway elevation 555 ft Runway displaced threshold 0 ft Runway heading 198
Runway 02R Runway length 8000 ft Runway width 150 ft
Runway elevation 590 ft Runway displaced threshold 0 ft Runway heading 18
Runway 20L Runway length 8000 ft Runway width 150 ft
Runway elevation 540 ft Runway displaced threshold 0 ft Runway heading 198
Runway 13 Runway length 11030 ft Runway width 150 ft
Runway elevation 543 ft Runway displaced threshold 801 ft Runway heading 133
Runway 31 Runway length 11030 ft Runway width 150 ft
Runway elevation 577 ft Runway displaced threshold 741 ft Runway heading 313

 AIRPORT FREQUENCIES
Type APP Name APP Frequency 120.6 MHZ
Type ATIS Name ATIS Frequency 135.1 MHZ
Type CLD Name CLNC DEL Frequency 126.05 MHZ
Type DEP Name DEP Frequency 118.4 MHZ
Type GND Name GND Frequency 121.9 MHZ
Type MISC Name ANG MAINT Frequency 138.1 MHZ
Type OPS Name ANG OPS Frequency 32.29 MHZ
Type RDO Name RDO Frequency 122.2 MHZ
Type TWR Name TWR Frequency 118.6 MHZ
Type UNIC Name UNICOM Frequency 122.95 MHZ

 AIRPORT NEAR NAVIGATION AIDS
Type NDB Name Dobbs Frequency 304 KHZ
Type VORTAC Name Nashville Frequency 114100 KHZ
Type NDB Name Opery Frequency 344 KHZ

-